Time;durP1;ratioP1;P1;durP2;ratioP2;P2;SDS_P1;SDS_P2;PMS_P1;PMS_P2;Temp;Humidity;BMP_temperature;BMP_pressure;BME280_temperature;BME280_humidity;BME280_pressure;Samples;Min_cycle;Max_cycle;Signal;HPM_P1;HPM_P2
2021/04/12 00:01:08;;;;;;;4.93;2.97;;;;;;;;;;5063630;28;20396;-46
2021/04/12 00:03:43;;;;;;;4.78;2.90;;;;;;;;;;5067492;28;20056;-49
2021/04/12 00:06:18;;;;;;;3.85;2.53;;;;;;;;;;5067003;28;20047;-48
2021/04/12 00:08:52;;;;;;;3.63;2.95;;;;;;;;;;5065916;28;20091;-49
2021/04/12 00:11:25;;;;;;;5.00;2.92;;;;;;;;;;5066363;28;20040;-48
2021/04/12 00:14:00;;;;;;;3.95;2.60;;;;;;;;;;5061669;28;20585;-46
2021/04/12 00:16:37;;;;;;;4.20;2.70;;;;;;;;;;5065224;28;20067;-45
2021/04/12 00:19:12;;;;;;;3.38;2.60;;;;;;;;;;5068631;28;20047;-46
2021/04/12 00:21:41;;;;;;;2.55;2.00;;;;;;;;;;5064914;28;20134;-46
2021/04/12 00:24:20;;;;;;;3.38;2.50;;;;;;;;;;5065020;28;20044;-46
2021/04/12 00:26:55;;;;;;;3.38;2.38;;;;;;;;;;5068120;28;20535;-45
2021/04/12 00:29:40;;;;;;;3.38;2.40;;;;;;;;;;5065890;28;20164;-46
2021/04/12 00:32:18;;;;;;;4.43;2.20;;;;;;;;;;5064942;28;20106;-47
2021/04/12 00:34:51;;;;;;;3.10;2.28;;;;;;;;;;5068499;28;20044;-46
2021/04/12 00:37:21;;;;;;;3.03;2.47;;;;;;;;;;5065254;28;20081;-46
2021/04/12 00:39:50;;;;;;;2.42;2.15;;;;;;;;;;5064170;28;20040;-47
2021/04/12 00:42:22;;;;;;;6.22;2.85;;;;;;;;;;5067275;28;20052;-46
2021/04/12 00:44:58;;;;;;;3.65;2.45;;;;;;;;;;5064695;28;20551;-46
2021/04/12 00:47:35;;;;;;;4.43;2.28;;;;;;;;;;5063676;28;20060;-46
2021/04/12 00:50:21;;;;;;;5.47;2.65;;;;;;;;;;5067116;28;20090;-47
2021/04/12 00:53:14;;;;;;;8.82;2.97;;;;;;;;;;5062022;28;20064;-47
2021/04/12 00:55:45;;;;;;;17.38;3.58;;;;;;;;;;5079032;28;20396;-45
2021/04/12 00:58:14;;;;;;;4.32;2.60;;;;;;;;;;5062205;28;20131;-47
2021/04/12 01:00:46;;;;;;;5.72;2.80;;;;;;;;;;5076951;28;20465;-46
2021/04/12 01:03:16;;;;;;;8.57;2.75;;;;;;;;;;5064522;28;20049;-47
2021/04/12 01:05:48;;;;;;;6.68;2.90;;;;;;;;;;5070299;28;20041;-47
2021/04/12 01:08:53;;;;;;;4.85;2.92;;;;;;;;;;5069503;28;20171;-47
2021/04/12 01:11:40;;;;;;;4.15;2.63;;;;;;;;;;5066020;28;20105;-47
2021/04/12 01:14:06;;;;;;;5.75;2.60;;;;;;;;;;5068166;28;20106;-47
2021/04/12 01:16:52;;;;;;;3.72;2.78;;;;;;;;;;5068366;28;20082;-48
2021/04/12 01:19:50;;;;;;;6.10;3.20;;;;;;;;;;5070098;28;20062;-46
2021/04/12 01:22:35;;;;;;;5.72;2.65;;;;;;;;;;5068247;28;20451;-48
2021/04/12 01:25:17;;;;;;;7.47;2.80;;;;;;;;;;5066410;28;20506;-48
2021/04/12 01:28:07;;;;;;;5.60;2.92;;;;;;;;;;5068866;28;20048;-46
2021/04/12 01:30:42;;;;;;;5.75;2.67;;;;;;;;;;5066894;28;20098;-45
2021/04/12 01:33:30;;;;;;;4.55;2.60;;;;;;;;;;5067648;28;20055;-45
2021/04/12 01:36:15;;;;;;;5.35;2.92;;;;;;;;;;5070702;28;20049;-45
2021/04/12 01:39:00;;;;;;;5.78;2.78;;;;;;;;;;5069615;28;20048;-46
2021/04/12 01:41:36;;;;;;;5.03;2.80;;;;;;;;;;5071478;28;20048;-45
2021/04/12 01:44:18;;;;;;;4.95;2.58;;;;;;;;;;5066293;28;20527;-47
2021/04/12 01:46:50;;;;;;;8.27;2.97;;;;;;;;;;5069209;28;20040;-45
2021/04/12 01:49:35;;;;;;;4.50;3.13;;;;;;;;;;5070009;28;20083;-46
2021/04/12 01:52:10;;;;;;;17.15;3.20;;;;;;;;;;5070719;28;20048;-48
2021/04/12 01:54:57;;;;;;;8.02;2.80;;;;;;;;;;5068858;28;20466;-46
2021/04/12 01:57:34;;;;;;;6.85;3.00;;;;;;;;;;5068138;28;20129;-46
2021/04/12 02:00:01;;;;;;;;;;;;;;;;;;5063687;28;20045;-48
2021/04/12 02:02:36;;;;;;;5.43;3.13;;;;;;;;;;5067702;28;19924;-47
2021/04/12 02:05:05;;;;;;;5.18;3.35;;;;;;;;;;5069526;28;20041;-45
2021/04/12 02:08:04;;;;;;;16.73;4.07;;;;;;;;;;5068941;28;20064;-47
2021/04/12 02:10:37;;;;;;;109.45;5.93;;;;;;;;;;5067336;28;20070;-47
2021/04/12 02:13:06;;;;;;;6.53;3.85;;;;;;;;;;5067036;28;20071;-47
2021/04/12 02:15:49;;;;;;;12.45;3.17;;;;;;;;;;5059352;28;20043;-46
2021/04/12 02:18:33;;;;;;;13.68;3.75;;;;;;;;;;5068786;28;20067;-45
2021/04/12 02:21:05;;;;;;;46.30;4.65;;;;;;;;;;5069213;28;20098;-48
2021/04/12 02:23:45;;;;;;;7.18;3.65;;;;;;;;;;5070173;28;20041;-46
2021/04/12 02:26:23;;;;;;;23.35;3.83;;;;;;;;;;5065462;28;20519;-46
2021/04/12 02:28:56;;;;;;;8.98;4.03;;;;;;;;;;5065754;28;20140;-47
2021/04/12 02:31:34;;;;;;;74.90;6.25;;;;;;;;;;5068928;28;20665;-47
2021/04/12 02:34:21;;;;;;;13.82;3.63;;;;;;;;;;5067301;28;20040;-46
2021/04/12 02:37:08;;;;;;;294.73;14.77;;;;;;;;;;5066872;28;20090;-47
2021/04/12 02:39:37;;;;;;;28.88;4.25;;;;;;;;;;5064239;28;20055;-46
2021/04/12 02:42:07;;;;;;;50.72;4.72;;;;;;;;;;5065151;28;20064;-47
2021/04/12 02:44:38;;;;;;;19.05;3.78;;;;;;;;;;5067691;28;20040;-48
2021/04/12 02:47:15;;;;;;;120.03;7.45;;;;;;;;;;5067130;28;20068;-45
2021/04/12 02:49:51;;;;;;;48.22;5.65;;;;;;;;;;5065880;28;20040;-47
2021/04/12 02:52:48;;;;;;;92.28;6.47;;;;;;;;;;5067317;28;20053;-46
2021/04/12 02:55:21;;;;;;;9.45;3.92;;;;;;;;;;5066569;28;20136;-46
2021/04/12 02:57:53;;;;;;;9.10;3.88;;;;;;;;;;5067447;28;20072;-47
2021/04/12 03:00:19;;;;;;;18.20;4.43;;;;;;;;;;5065247;28;20133;-45
2021/04/12 03:02:54;;;;;;;39.60;4.57;;;;;;;;;;5068537;28;20052;-46
2021/04/12 03:05:27;;;;;;;24.95;4.25;;;;;;;;;;5068449;28;20094;-46
2021/04/12 03:08:12;;;;;;;7.93;3.70;;;;;;;;;;5068964;28;20086;-46
2021/04/12 03:10:52;;;;;;;5.97;3.47;;;;;;;;;;5065992;28;20044;-48
2021/04/12 03:13:21;;;;;;;7.15;3.10;;;;;;;;;;5067270;28;20102;-46
2021/04/12 03:16:03;;;;;;;7.25;3.22;;;;;;;;;;5067791;28;20136;-46
2021/04/12 03:18:57;;;;;;;5.85;3.42;;;;;;;;;;5067564;28;20163;-45
2021/04/12 03:21:32;;;;;;;8.30;3.40;;;;;;;;;;5064577;28;20048;-47
2021/04/12 03:24:07;;;;;;;9.38;3.90;;;;;;;;;;5066992;28;20040;-47
2021/04/12 03:26:43;;;;;;;14.45;4.28;;;;;;;;;;5064149;28;20037;-48
2021/04/12 03:29:16;;;;;;;20.50;4.55;;;;;;;;;;5064819;28;20102;-48
2021/04/12 03:32:02;;;;;;;15.88;4.20;;;;;;;;;;5062768;28;20048;-47
2021/04/12 03:34:32;;;;;;;7.05;3.67;;;;;;;;;;5064048;28;20040;-46
2021/04/12 03:37:26;;;;;;;6.90;3.80;;;;;;;;;;5066948;28;20044;-46
2021/04/12 03:39:52;;;;;;;7.47;3.80;;;;;;;;;;5065838;28;20102;-47
2021/04/12 03:42:37;;;;;;;6.43;3.97;;;;;;;;;;5065342;28;20068;-46
2021/04/12 03:45:10;;;;;;;7.32;4.05;;;;;;;;;;5066277;28;20048;-47
2021/04/12 03:47:57;;;;;;;5.78;3.75;;;;;;;;;;5068038;28;20049;-47
2021/04/12 03:50:42;;;;;;;11.23;4.13;;;;;;;;;;5066873;28;20553;-48
2021/04/12 03:53:27;;;;;;;10.43;4.03;;;;;;;;;;5066058;28;20063;-46
2021/04/12 03:56:18;;;;;;;9.68;4.32;;;;;;;;;;5065934;28;20106;-47
2021/04/12 03:58:51;;;;;;;11.20;4.18;;;;;;;;;;5067784;28;20040;-45
2021/04/12 04:01:29;;;;;;;11.13;4.40;;;;;;;;;;5064102;28;20492;-48
2021/04/12 04:04:14;;;;;;;7.75;3.92;;;;;;;;;;5064293;28;20037;-45
2021/04/12 04:06:59;;;;;;;9.32;4.35;;;;;;;;;;5065200;28;20048;-46
2021/04/12 04:09:45;;;;;;;8.15;4.28;;;;;;;;;;5066773;28;20561;-46
2021/04/12 04:12:29;;;;;;;9.07;4.60;;;;;;;;;;5066628;28;20079;-46
2021/04/12 04:15:16;;;;;;;11.93;4.90;;;;;;;;;;5064880;28;20894;-46
2021/04/12 04:18:01;;;;;;;9.65;5.38;;;;;;;;;;5065307;28;20113;-45
2021/04/12 04:20:30;;;;;;;10.73;5.57;;;;;;;;;;5064693;28;20052;-45
2021/04/12 04:22:59;;;;;;;12.82;5.00;;;;;;;;;;5061565;28;20056;-49
2021/04/12 04:25:25;;;;;;;10.82;4.97;;;;;;;;;;5063136;28;20048;-47
2021/04/12 04:27:59;;;;;;;9.63;3.65;;;;;;;;;;5066988;28;20058;-46
2021/04/12 04:30:38;;;;;;;11.30;4.50;;;;;;;;;;5065968;28;20054;-45
2021/04/12 04:33:29;;;;;;;12.45;5.22;;;;;;;;;;5060491;28;20044;-47
2021/04/12 04:36:02;;;;;;;8.98;4.78;;;;;;;;;;5066269;28;20037;-47
2021/04/12 04:38:47;;;;;;;9.10;5.22;;;;;;;;;;5061117;28;20049;-46
2021/04/12 04:41:32;;;;;;;11.05;5.22;;;;;;;;;;5064622;28;20505;-46
2021/04/12 04:44:17;;;;;;;9.50;5.25;;;;;;;;;;5067519;28;20084;-46
2021/04/12 04:47:05;;;;;;;8.68;5.28;;;;;;;;;;5065513;28;20052;-45
2021/04/12 04:49:38;;;;;;;10.82;4.90;;;;;;;;;;5064799;28;20041;-45
2021/04/12 04:52:22;;;;;;;7.00;4.68;;;;;;;;;;5067625;28;20067;-48
2021/04/12 04:55:00;;;;;;;8.32;4.93;;;;;;;;;;5080407;28;20045;-45
2021/04/12 04:57:39;;;;;;;8.63;5.03;;;;;;;;;;5067525;28;20056;-47
2021/04/12 05:00:06;;;;;;;;;;;;;;;;;;5067216;28;20052;-45
2021/04/12 05:02:47;;;;;;;4.43;3.53;;;;;;;;;;5062809;28;19955;-45
2021/04/12 05:05:14;;;;;;;6.43;4.40;;;;;;;;;;5066184;28;20036;-46
2021/04/12 05:07:58;;;;;;;4.10;3.30;;;;;;;;;;5065953;28;20037;-48
2021/04/12 05:10:44;;;;;;;8.70;4.00;;;;;;;;;;5066375;28;20051;-45
2021/04/12 05:13:15;;;;;;;4.35;3.30;;;;;;;;;;5068773;28;20522;-46
2021/04/12 05:15:44;;;;;;;5.38;3.83;;;;;;;;;;5064584;28;20045;-46
2021/04/12 05:18:26;;;;;;;3.55;3.05;;;;;;;;;;5064784;28;20074;-47
2021/04/12 05:21:02;;;;;;;3.90;2.60;;;;;;;;;;5064323;28;20041;-46
2021/04/12 05:23:28;;;;;;;3.90;2.95;;;;;;;;;;5065462;28;20436;-47
2021/04/12 05:25:54;;;;;;;4.87;2.87;;;;;;;;;;5063754;28;20071;-46
2021/04/12 05:28:39;;;;;;;5.95;2.90;;;;;;;;;;5066870;28;20048;-46
2021/04/12 05:31:25;;;;;;;4.43;3.33;;;;;;;;;;5068852;28;20435;-49
2021/04/12 05:33:57;;;;;;;4.60;2.95;;;;;;;;;;5068293;28;20053;-46
2021/04/12 05:36:23;;;;;;;3.83;3.20;;;;;;;;;;5067019;28;20117;-46
2021/04/12 05:38:49;;;;;;;3.60;3.05;;;;;;;;;;5063093;28;20512;-46
2021/04/12 05:41:31;;;;;;;6.30;3.13;;;;;;;;;;5069814;28;20076;-46
2021/04/12 05:43:57;;;;;;;5.05;2.70;;;;;;;;;;5063259;28;20565;-47
2021/04/12 05:46:30;;;;;;;3.35;2.75;;;;;;;;;;5063496;28;20060;-49
2021/04/12 05:49:23;;;;;;;2.72;2.38;;;;;;;;;;5071654;28;20052;-46
2021/04/12 05:52:12;;;;;;;2.28;1.90;;;;;;;;;;5062515;28;20040;-48
2021/04/12 05:55:02;;;;;;;2.10;1.90;;;;;;;;;;5069545;28;20049;-46
2021/04/12 05:57:50;;;;;;;2.55;1.95;;;;;;;;;;5066198;28;20488;-46
2021/04/12 06:00:30;;;;;;;2.35;1.75;;;;;;;;;;5069668;28;20053;-46
2021/04/12 06:03:02;;;;;;;2.00;1.80;;;;;;;;;;5068893;28;20055;-48
2021/04/12 06:05:41;;;;;;;1.83;1.52;;;;;;;;;;5067422;28;20045;-47
2021/04/12 06:08:19;;;;;;;2.65;1.75;;;;;;;;;;5072468;28;20051;-49
2021/04/12 06:10:59;;;;;;;2.65;1.60;;;;;;;;;;5070159;28;20101;-45
2021/04/12 06:13:44;;;;;;;3.47;1.80;;;;;;;;;;5069997;28;20041;-47
2021/04/12 06:16:30;;;;;;;2.88;1.90;;;;;;;;;;5069237;28;20040;-49
2021/04/12 06:19:15;;;;;;;1.85;1.70;;;;;;;;;;5082992;28;20048;-46
2021/04/12 06:21:59;;;;;;;2.47;1.52;;;;;;;;;;5072181;28;20059;-46
2021/04/12 06:24:25;;;;;;;2.38;1.58;;;;;;;;;;5064955;28;20082;-49
2021/04/12 06:27:10;;;;;;;3.90;1.52;;;;;;;;;;5072207;28;20066;-46
2021/04/12 06:29:55;;;;;;;1.90;1.50;;;;;;;;;;5068269;28;20060;-48
2021/04/12 06:32:41;;;;;;;4.03;1.15;;;;;;;;;;5065007;28;20037;-46
2021/04/12 06:35:26;;;;;;;2.70;0.85;;;;;;;;;;5068473;28;20108;-47
2021/04/12 06:38:19;;;;;;;2.15;0.73;;;;;;;;;;5067349;28;20049;-46
2021/04/12 06:41:03;;;;;;;2.10;0.65;;;;;;;;;;5066803;28;20101;-45
2021/04/12 06:43:53;;;;;;;0.57;0.50;;;;;;;;;;5045887;28;20475;-47
2021/04/12 06:46:38;;;;;;;1.05;0.50;;;;;;;;;;5055955;28;20491;-46
2021/04/12 06:49:26;;;;;;;1.00;0.50;;;;;;;;;;5067588;28;20068;-48
2021/04/12 06:51:58;;;;;;;2.13;0.80;;;;;;;;;;5067717;28;20045;-47
2021/04/12 06:54:40;;;;;;;1.15;0.45;;;;;;;;;;5070137;28;20400;-46
2021/04/12 06:57:25;;;;;;;3.17;0.68;;;;;;;;;;5066323;28;20036;-48
2021/04/12 07:00:05;;;;;;;1.00;0.40;;;;;;;;;;5066951;28;20495;-48
2021/04/12 07:02:41;;;;;;;2.55;0.50;;;;;;;;;;5068971;28;20044;-46
2021/04/12 07:05:13;;;;;;;0.80;0.50;;;;;;;;;;5067601;28;20049;-46
2021/04/12 07:07:45;;;;;;;0.30;0.30;;;;;;;;;;5068669;28;20479;-46
2021/04/12 07:10:15;;;;;;;2.13;0.45;;;;;;;;;;5067924;28;20040;-47
2021/04/12 07:12:54;;;;;;;1.50;0.50;;;;;;;;;;5066513;28;20400;-46
2021/04/12 07:15:38;;;;;;;0.80;0.50;;;;;;;;;;5064016;28;20041;-47
2021/04/12 07:18:20;;;;;;;2.80;0.50;;;;;;;;;;5068870;28;20050;-45
2021/04/12 07:21:05;;;;;;;1.10;0.43;;;;;;;;;;5066505;28;20094;-47
2021/04/12 07:23:50;;;;;;;2.20;0.45;;;;;;;;;;5065085;28;20043;-46
2021/04/12 07:26:30;;;;;;;0.80;0.50;;;;;;;;;;5065371;28;20045;-46
2021/04/12 07:28:59;;;;;;;0.38;0.38;;;;;;;;;;5069209;28;20071;-48
2021/04/12 07:31:44;;;;;;;2.03;0.50;;;;;;;;;;5068356;28;20119;-48
2021/04/12 07:34:19;;;;;;;1.00;0.50;;;;;;;;;;5068848;28;20052;-46
2021/04/12 07:37:01;;;;;;;3.83;0.50;;;;;;;;;;5070221;28;20416;-47
2021/04/12 07:39:47;;;;;;;2.90;0.50;;;;;;;;;;5070549;28;20492;-47
2021/04/12 07:42:32;;;;;;;1.63;0.50;;;;;;;;;;5064683;28;20064;-48
2021/04/12 07:45:05;;;;;;;0.32;0.30;;;;;;;;;;5066876;28;20131;-49
2021/04/12 07:47:51;;;;;;;0.38;0.38;;;;;;;;;;5067100;28;20037;-46
2021/04/12 07:50:20;;;;;;;3.20;0.63;;;;;;;;;;5065839;28;20037;-48
2021/04/12 07:53:25;;;;;;;0.22;0.22;;;;;;;;;;5066449;28;20043;-48
2021/04/12 07:55:54;;;;;;;4.28;0.50;;;;;;;;;;5067155;28;20503;-48
2021/04/12 07:58:40;;;;;;;2.17;0.43;;;;;;;;;;5067190;28;20052;-46
2021/04/12 08:01:25;;;;;;;1.98;0.65;;;;;;;;;;5068188;28;20049;-46
2021/04/12 08:04:10;;;;;;;0.55;0.40;;;;;;;;;;5062118;28;20105;-48
2021/04/12 08:06:57;;;;;;;0.57;0.45;;;;;;;;;;5068390;28;20478;-47
2021/04/12 08:09:34;;;;;;;2.85;0.50;;;;;;;;;;5066367;28;20044;-46
2021/04/12 08:12:31;;;;;;;1.65;0.50;;;;;;;;;;5068435;28;20051;-49
2021/04/12 08:14:58;;;;;;;0.98;0.40;;;;;;;;;;5069189;28;20112;-47
2021/04/12 08:17:43;;;;;;;1.30;0.65;;;;;;;;;;5069564;28;20534;-51
2021/04/12 08:20:15;;;;;;;0.80;0.38;;;;;;;;;;5069051;28;20040;-47
2021/04/12 08:23:23;;;;;;;1.50;0.60;;;;;;;;;;5065719;28;20393;-46
2021/04/12 08:26:24;;;;;;;1.52;0.57;;;;;;;;;;5067714;28;20068;-47
2021/04/12 08:28:55;;;;;;;1.23;0.50;;;;;;;;;;5067100;28;20060;-46
2021/04/12 08:31:34;;;;;;;0.80;0.40;;;;;;;;;;5065211;28;20110;-46
2021/04/12 08:34:09;;;;;;;4.57;1.30;;;;;;;;;;5065141;28;20135;-49
2021/04/12 08:36:52;;;;;;;2.75;0.60;;;;;;;;;;5067597;28;20048;-49
2021/04/12 08:39:28;;;;;;;0.28;0.28;;;;;;;;;;5069272;28;20604;-47
2021/04/12 08:41:54;;;;;;;1.17;0.50;;;;;;;;;;5066160;28;20564;-46
2021/04/12 08:44:39;;;;;;;2.05;0.45;;;;;;;;;;5069746;28;20049;-49
2021/04/12 08:47:08;;;;;;;1.15;0.45;;;;;;;;;;5068611;28;20037;-46
2021/04/12 08:49:55;;;;;;;3.10;0.63;;;;;;;;;;5060983;28;20098;-47
2021/04/12 08:52:40;;;;;;;2.90;0.68;;;;;;;;;;5067871;28;20393;-50
2021/04/12 08:55:25;;;;;;;2.10;0.50;;;;;;;;;;5064907;28;20041;-47
2021/04/12 08:57:57;;;;;;;1.25;0.45;;;;;;;;;;5068454;28;20118;-46
2021/04/12 09:00:34;;;;;;;1.15;0.60;;;;;;;;;;5077583;28;20499;-46
2021/04/12 09:03:03;;;;;;;2.00;0.50;;;;;;;;;;5065546;28;20587;-46
2021/04/12 09:05:48;;;;;;;0.77;0.32;;;;;;;;;;5067324;28;20512;-47
2021/04/12 09:08:33;;;;;;;1.48;0.40;;;;;;;;;;5068437;28;20053;-49
2021/04/12 09:11:16;;;;;;;0.30;0.30;;;;;;;;;;5064293;28;20468;-47
2021/04/12 09:14:19;;;;;;;1.55;0.57;;;;;;;;;;5066467;28;20110;-46
2021/04/12 09:17:04;;;;;;;0.63;0.30;;;;;;;;;;5062502;28;20076;-47
2021/04/12 09:19:49;;;;;;;0.25;0.25;;;;;;;;;;5066471;28;20066;-48
2021/04/12 09:22:30;;;;;;;0.88;0.40;;;;;;;;;;5062842;28;20068;-47
2021/04/12 09:25:16;;;;;;;2.00;0.52;;;;;;;;;;5066784;28;20466;-47
2021/04/12 09:27:50;;;;;;;0.93;0.40;;;;;;;;;;5068031;28;20040;-46
2021/04/12 09:30:37;;;;;;;1.00;0.30;;;;;;;;;;5067433;28;20043;-46
2021/04/12 09:33:22;;;;;;;1.98;0.60;;;;;;;;;;5067093;28;20162;-48
2021/04/12 09:35:49;;;;;;;3.20;0.50;;;;;;;;;;5071147;28;20040;-49
2021/04/12 09:38:15;;;;;;;1.35;0.60;;;;;;;;;;5067343;28;20072;-48
2021/04/12 09:40:41;;;;;;;2.63;0.40;;;;;;;;;;5068869;28;20048;-46
2021/04/12 09:43:26;;;;;;;0.35;0.30;;;;;;;;;;5072558;28;20045;-47
2021/04/12 09:45:55;;;;;;;0.30;0.30;;;;;;;;;;5068393;28;20044;-46
2021/04/12 09:48:40;;;;;;;2.90;0.43;;;;;;;;;;5068524;28;20076;-48
2021/04/12 09:51:25;;;;;;;0.50;0.30;;;;;;;;;;5070586;28;20496;-46
2021/04/12 09:54:04;;;;;;;0.68;0.60;;;;;;;;;;5068964;28;20541;-47
2021/04/12 09:56:50;;;;;;;1.10;0.65;;;;;;;;;;5066071;28;20427;-47
2021/04/12 09:59:35;;;;;;;1.00;0.50;;;;;;;;;;5072451;28;20194;-47
2021/04/12 10:02:06;;;;;;;2.05;0.45;;;;;;;;;;5072019;28;20044;-47
2021/04/12 10:04:47;;;;;;;0.75;0.40;;;;;;;;;;5071476;28;20523;-48
2021/04/12 10:07:16;;;;;;;2.45;0.63;;;;;;;;;;5072512;28;20045;-47
2021/04/12 10:10:04;;;;;;;1.02;0.50;;;;;;;;;;5073163;28;20135;-46
2021/04/12 10:12:40;;;;;;;1.63;0.60;;;;;;;;;;5072657;28;20086;-47
2021/04/12 10:15:25;;;;;;;3.55;0.70;;;;;;;;;;5068022;28;20469;-47
2021/04/12 10:17:53;;;;;;;2.72;0.55;;;;;;;;;;5069605;28;20047;-47
2021/04/12 10:20:28;;;;;;;2.92;0.70;;;;;;;;;;5070350;28;20045;-46
2021/04/12 10:23:00;;;;;;;2.42;0.55;;;;;;;;;;5070447;28;20500;-47
2021/04/12 10:25:36;;;;;;;2.38;0.35;;;;;;;;;;5066942;28;20144;-47
2021/04/12 10:28:13;;;;;;;3.55;0.73;;;;;;;;;;5069936;28;20048;-49
2021/04/12 10:30:43;;;;;;;0.95;0.40;;;;;;;;;;5070967;28;20045;-47
2021/04/12 10:33:30;;;;;;;5.30;0.70;;;;;;;;;;5068559;28;20043;-49
2021/04/12 10:35:59;;;;;;;1.25;0.45;;;;;;;;;;5070816;28;20050;-46
2021/04/12 10:38:27;;;;;;;3.58;0.50;;;;;;;;;;5071888;28;20044;-48
2021/04/12 10:41:09;;;;;;;3.40;0.50;;;;;;;;;;5070218;28;20029;-46
2021/04/12 10:44:00;;;;;;;1.17;0.40;;;;;;;;;;5070807;28;20135;-47
2021/04/12 10:46:29;;;;;;;2.28;0.35;;;;;;;;;;5065409;28;20041;-47
2021/04/12 10:49:05;;;;;;;0.35;0.35;;;;;;;;;;5068934;28;20447;-48
2021/04/12 10:51:33;;;;;;;3.13;0.60;;;;;;;;;;5065704;28;20036;-46
2021/04/12 10:54:14;;;;;;;1.58;0.40;;;;;;;;;;5066619;28;20528;-49
2021/04/12 10:57:03;;;;;;;0.63;0.32;;;;;;;;;;5068034;28;20090;-46
2021/04/12 10:59:49;;;;;;;2.55;0.50;;;;;;;;;;5066640;28;20697;-46
2021/04/12 11:02:34;;;;;;;1.40;0.63;;;;;;;;;;5071203;28;20051;-49
2021/04/12 11:05:19;;;;;;;0.98;0.30;;;;;;;;;;5068387;28;20062;-47
2021/04/12 11:07:51;;;;;;;1.58;0.40;;;;;;;;;;5063260;28;20033;-47
2021/04/12 11:10:22;;;;;;;1.77;0.50;;;;;;;;;;5066900;28;20057;-46
2021/04/12 11:13:05;;;;;;;4.20;0.75;;;;;;;;;;5068305;28;20353;-48
2021/04/12 11:15:32;;;;;;;3.30;0.60;;;;;;;;;;5066080;28;20089;-47
2021/04/12 11:18:17;;;;;;;2.25;0.50;;;;;;;;;;5068360;28;20113;-50
2021/04/12 11:21:04;;;;;;;1.95;0.50;;;;;;;;;;5069551;28;20047;-47
2021/04/12 11:23:33;;;;;;;2.58;0.60;;;;;;;;;;5068954;28;20124;-48
2021/04/12 11:25:59;;;;;;;0.60;0.47;;;;;;;;;;5068055;28;20056;-49
2021/04/12 11:28:29;;;;;;;3.63;0.60;;;;;;;;;;5068206;28;20068;-47
2021/04/12 11:31:03;;;;;;;1.17;0.30;;;;;;;;;;5072425;28;20048;-46
2021/04/12 11:33:29;;;;;;;0.65;0.40;;;;;;;;;;5070550;28;20492;-47
2021/04/12 11:35:58;;;;;;;0.93;0.50;;;;;;;;;;5070599;28;20404;-47
2021/04/12 11:38:26;;;;;;;1.40;0.88;;;;;;;;;;5067528;28;20063;-49
2021/04/12 11:41:01;;;;;;;1.65;0.55;;;;;;;;;;5067579;28;20109;-50
2021/04/12 11:43:33;;;;;;;2.63;0.57;;;;;;;;;;5066631;28;20079;-47
2021/04/12 11:46:07;;;;;;;3.83;0.52;;;;;;;;;;5065377;28;20053;-48
2021/04/12 11:48:59;;;;;;;1.90;0.50;;;;;;;;;;5065721;28;20037;-49
2021/04/12 11:51:34;;;;;;;2.10;0.73;;;;;;;;;;5075056;28;20139;-46
2021/04/12 11:54:02;;;;;;;5.07;0.95;;;;;;;;;;5072474;28;20052;-47
2021/04/12 11:56:42;;;;;;;1.58;0.55;;;;;;;;;;5062959;28;20045;-49
2021/04/12 11:59:27;;;;;;;7.53;1.20;;;;;;;;;;5064561;28;20056;-48
2021/04/12 12:02:07;;;;;;;6.15;0.88;;;;;;;;;;5065783;28;20083;-46
2021/04/12 12:04:39;;;;;;;4.88;1.20;;;;;;;;;;5068078;28;20047;-48
2021/04/12 12:07:09;;;;;;;5.10;0.95;;;;;;;;;;5067594;28;20713;-46
2021/04/12 12:09:37;;;;;;;2.00;0.90;;;;;;;;;;5071424;28;20045;-47
2021/04/12 12:12:42;;;;;;;1.83;0.90;;;;;;;;;;5066362;28;20036;-47
2021/04/12 12:15:23;;;;;;;5.30;0.77;;;;;;;;;;5061328;28;20044;-49
2021/04/12 12:18:05;;;;;;;1.35;0.70;;;;;;;;;;5063922;28;20070;-48
2021/04/12 12:20:44;;;;;;;3.05;0.80;;;;;;;;;;5065864;28;20123;-48
2021/04/12 12:23:31;;;;;;;8.15;0.80;;;;;;;;;;5070260;28;20048;-47
2021/04/12 12:25:59;;;;;;;1.45;0.60;;;;;;;;;;5068991;28;20059;-46
2021/04/12 12:28:32;;;;;;;2.33;0.70;;;;;;;;;;5064403;28;20048;-47
2021/04/12 12:31:09;;;;;;;5.13;0.80;;;;;;;;;;5066843;28;20048;-47
2021/04/12 12:33:50;;;;;;;2.53;0.70;;;;;;;;;;5067887;28;20075;-48
2021/04/12 12:36:17;;;;;;;2.63;0.50;;;;;;;;;;5067339;28;20052;-46
2021/04/12 12:38:48;;;;;;;3.00;0.60;;;;;;;;;;5064808;28;20055;-48
2021/04/12 12:41:16;;;;;;;4.82;0.93;;;;;;;;;;5069410;28;20412;-48
2021/04/12 12:43:44;;;;;;;1.30;0.57;;;;;;;;;;5065367;28;20103;-47
2021/04/12 12:46:19;;;;;;;0.88;0.50;;;;;;;;;;5067838;28;20061;-49
2021/04/12 12:48:51;;;;;;;4.32;0.60;;;;;;;;;;5063337;28;20041;-49
2021/04/12 12:51:17;;;;;;;3.65;0.60;;;;;;;;;;5068664;28;20098;-47
2021/04/12 12:53:46;;;;;;;1.65;0.73;;;;;;;;;;5068743;28;20056;-49
2021/04/12 12:56:15;;;;;;;1.52;0.38;;;;;;;;;;5063591;28;20037;-48
2021/04/12 12:58:52;;;;;;;3.20;0.80;;;;;;;;;;5068764;28;20518;-51
2021/04/12 13:01:24;;;;;;;4.32;0.60;;;;;;;;;;5069508;28;20048;-51
2021/04/12 13:03:50;;;;;;;3.38;0.50;;;;;;;;;;5068546;28;20098;-48
2021/04/12 13:06:19;;;;;;;2.97;0.80;;;;;;;;;;5068835;28;20041;-46
2021/04/12 13:09:12;;;;;;;1.38;0.57;;;;;;;;;;5074089;28;20126;-48
2021/04/12 13:11:46;;;;;;;3.42;0.90;;;;;;;;;;5068698;28;20568;-50
2021/04/12 13:14:16;;;;;;;1.30;0.70;;;;;;;;;;5072892;28;20048;-47
2021/04/12 13:16:42;;;;;;;1.52;0.50;;;;;;;;;;5068557;28;20037;-48
2021/04/12 13:19:11;;;;;;;1.17;0.55;;;;;;;;;;5072418;28;20045;-50
2021/04/12 13:21:37;;;;;;;;;;;;;;;;;;5073290;28;20047;-47
2021/04/12 13:24:08;;;;;;;2.65;0.50;;;;;;;;;;5068692;28;19920;-47
2021/04/12 13:26:40;;;;;;;3.88;0.52;;;;;;;;;;5070884;28;20086;-48
2021/04/12 13:29:11;;;;;;;2.22;0.52;;;;;;;;;;5068500;28;20060;-48
2021/04/12 13:31:47;;;;;;;1.67;0.50;;;;;;;;;;5067929;28;20048;-48
2021/04/12 13:34:19;;;;;;;2.72;0.47;;;;;;;;;;5074587;28;20090;-48
2021/04/12 13:36:51;;;;;;;1.13;0.60;;;;;;;;;;5068769;28;20412;-49
2021/04/12 13:39:27;;;;;;;5.80;0.70;;;;;;;;;;5069646;28;20045;-47
2021/04/12 13:41:54;;;;;;;1.90;0.60;;;;;;;;;;5068144;28;20408;-47
2021/04/12 13:44:22;;;;;;;3.35;0.88;;;;;;;;;;5069326;28;20102;-49
2021/04/12 13:46:48;;;;;;;;;;;;;;;;;;5071804;28;20033;-48
2021/04/12 13:49:17;;;;;;;1.23;0.55;;;;;;;;;;5072608;28;20281;-48
2021/04/12 13:51:45;;;;;;;3.08;0.60;;;;;;;;;;5067429;28;20098;-47
2021/04/12 13:54:19;;;;;;;1.65;0.50;;;;;;;;;;5063991;28;20040;-48
2021/04/12 13:56:49;;;;;;;2.63;0.52;;;;;;;;;;5068244;28;20045;-48
2021/04/12 13:59:17;;;;;;;1.65;0.47;;;;;;;;;;5069716;28;20459;-47
2021/04/12 14:01:51;;;;;;;2.20;0.80;;;;;;;;;;5064801;28;20386;-51
2021/04/12 14:04:22;;;;;;;1.75;0.50;;;;;;;;;;5068859;28;20032;-47
2021/04/12 14:06:57;;;;;;;0.98;0.35;;;;;;;;;;5067779;28;20049;-50
2021/04/12 14:09:23;;;;;;;5.18;0.93;;;;;;;;;;5069176;28;20058;-51
2021/04/12 14:11:56;;;;;;;4.60;0.90;;;;;;;;;;5068190;28;20045;-47
2021/04/12 14:14:27;;;;;;;3.13;0.60;;;;;;;;;;5069953;28;20049;-52
2021/04/12 14:16:56;;;;;;;2.70;0.68;;;;;;;;;;5066781;28;20036;-47
2021/04/12 14:19:50;;;;;;;2.22;0.45;;;;;;;;;;5066185;28;20511;-49
2021/04/12 14:22:27;;;;;;;1.75;0.45;;;;;;;;;;5065988;28;20564;-51
2021/04/12 14:24:56;;;;;;;5.25;1.02;;;;;;;;;;5066499;28;20057;-47
2021/04/12 14:27:25;;;;;;;1.48;0.60;;;;;;;;;;5066343;28;20574;-47
2021/04/12 14:30:03;;;;;;;4.22;0.93;;;;;;;;;;5068787;28;20048;-47
2021/04/12 14:32:52;;;;;;;2.90;0.82;;;;;;;;;;5069613;28;20048;-47
2021/04/12 14:35:30;;;;;;;2.42;0.80;;;;;;;;;;5070255;28;20056;-48
2021/04/12 14:38:08;;;;;;;4.35;0.68;;;;;;;;;;5068301;28;20037;-48
2021/04/12 14:40:35;;;;;;;7.32;1.20;;;;;;;;;;5070176;28;20045;-47
2021/04/12 14:43:14;;;;;;;4.40;1.25;;;;;;;;;;5067453;28;20074;-47
2021/04/12 14:45:43;;;;;;;4.80;0.95;;;;;;;;;;5069729;28;20048;-47
2021/04/12 14:48:29;;;;;;;8.10;1.45;;;;;;;;;;5078262;28;20485;-49
2021/04/12 14:50:56;;;;;;;6.60;1.40;;;;;;;;;;5066888;28;20063;-51
2021/04/12 14:53:22;;;;;;;;;;;;;;;;;;5071346;28;20037;-49
2021/04/12 14:56:00;;;;;;;5.03;1.10;;;;;;;;;;5065611;28;20023;-46
2021/04/12 14:58:26;;;;;;;;;;;;;;;;;;5082382;28;20094;-49
2021/04/12 15:00:54;;;;;;;5.05;1.40;;;;;;;;;;5070663;28;19924;-47
2021/04/12 15:03:21;;;;;;;9.05;1.40;;;;;;;;;;5069643;28;20110;-50
2021/04/12 15:05:51;;;;;;;15.30;1.65;;;;;;;;;;5067445;28;20551;-51
2021/04/12 15:08:31;;;;;;;4.72;1.30;;;;;;;;;;5071099;28;20052;-48
2021/04/12 15:11:07;;;;;;;5.88;1.45;;;;;;;;;;5064928;28;20041;-49
2021/04/12 15:13:39;;;;;;;6.07;1.25;;;;;;;;;;5064999;28;20040;-48
2021/04/12 15:16:23;;;;;;;5.78;1.52;;;;;;;;;;5062372;28;20055;-49
2021/04/12 15:18:51;;;;;;;7.38;1.55;;;;;;;;;;5068541;28;20717;-48
2021/04/12 15:21:25;;;;;;;6.38;2.03;;;;;;;;;;5070463;28;20044;-46
2021/04/12 15:24:21;;;;;;;6.10;1.50;;;;;;;;;;5065694;28;20056;-46
2021/04/12 15:26:58;;;;;;;6.65;1.35;;;;;;;;;;5073902;28;20519;-48
2021/04/12 15:29:31;;;;;;;4.82;1.10;;;;;;;;;;5067332;28;20120;-48
2021/04/12 15:32:11;;;;;;;8.02;1.63;;;;;;;;;;5069159;28;20041;-50
2021/04/12 15:34:45;;;;;;;5.97;1.30;;;;;;;;;;5068898;28;20041;-48
2021/04/12 15:37:20;;;;;;;6.28;1.27;;;;;;;;;;5063801;28;20086;-49
2021/04/12 15:39:48;;;;;;;10.25;1.60;;;;;;;;;;5069512;28;20040;-47
2021/04/12 15:42:17;;;;;;;9.15;1.70;;;;;;;;;;5071019;28;20094;-47
2021/04/12 15:44:46;;;;;;;4.65;1.52;;;;;;;;;;5068720;28;20041;-47